sensor_id;sensor_type;location;lat;lon;timestamp;pressure;altitude;pressure_sealevel;temperature;humidity
42169;BME280;27838;43.858;25.974;2022-12-13T00:01:32;100627.09;;;6.24;58.18
42169;BME280;27838;43.858;25.974;2022-12-13T00:04:01;100637.34;;;6.18;59.20
42169;BME280;27838;43.858;25.974;2022-12-13T00:06:28;100642.53;;;6.19;59.35
42169;BME280;27838;43.858;25.974;2022-12-13T00:08:56;100653.72;;;6.17;59.05
42169;BME280;27838;43.858;25.974;2022-12-13T00:11:23;100659.75;;;6.17;58.76
42169;BME280;27838;43.858;25.974;2022-12-13T00:13:50;100664.09;;;6.17;58.68
42169;BME280;27838;43.858;25.974;2022-12-13T00:16:18;100654.63;;;6.19;59.17
42169;BME280;27838;43.858;25.974;2022-12-13T00:18:50;100660.69;;;6.21;58.38
42169;BME280;27838;43.858;25.974;2022-12-13T00:21:19;100647.78;;;6.22;58.65
42169;BME280;27838;43.858;25.974;2022-12-13T00:23:46;100645.19;;;6.22;58.67
42169;BME280;27838;43.858;25.974;2022-12-13T00:26:17;100642.56;;;6.21;58.79
42169;BME280;27838;43.858;25.974;2022-12-13T00:28:44;100633.06;;;6.21;57.79
42169;BME280;27838;43.858;25.974;2022-12-13T00:31:13;100633.13;;;6.24;57.22
42169;BME280;27838;43.858;25.974;2022-12-13T00:33:39;100646.88;;;6.20;57.88
42169;BME280;27838;43.858;25.974;2022-12-13T00:36:06;100646.00;;;6.20;57.36
42169;BME280;27838;43.858;25.974;2022-12-13T00:38:34;100644.34;;;6.25;57.69
42169;BME280;27838;43.858;25.974;2022-12-13T00:41:14;100649.47;;;6.22;55.92
42169;BME280;27838;43.858;25.974;2022-12-13T00:43:40;100651.72;;;6.02;55.86
42169;BME280;27838;43.858;25.974;2022-12-13T00:46:16;100657.50;;;5.89;55.84
42169;BME280;27838;43.858;25.974;2022-12-13T00:48:47;100663.28;;;5.74;55.35
42169;BME280;27838;43.858;25.974;2022-12-13T00:51:14;100664.88;;;5.67;55.23
42169;BME280;27838;43.858;25.974;2022-12-13T00:53:41;100657.81;;;5.58;55.56
42169;BME280;27838;43.858;25.974;2022-12-13T00:56:12;100664.69;;;5.58;55.28
42169;BME280;27838;43.858;25.974;2022-12-13T00:58:40;100661.00;;;5.46;54.54
42169;BME280;27838;43.858;25.974;2022-12-13T01:01:10;100654.84;;;5.38;54.94
42169;BME280;27838;43.858;25.974;2022-12-13T01:03:38;100652.25;;;5.38;54.86
42169;BME280;27838;43.858;25.974;2022-12-13T01:06:28;100646.19;;;5.38;54.57
42169;BME280;27838;43.858;25.974;2022-12-13T01:08:58;100652.19;;;5.35;54.39
42169;BME280;27838;43.858;25.974;2022-12-13T01:11:25;100650.34;;;5.31;54.22
42169;BME280;27838;43.858;25.974;2022-12-13T01:13:51;100657.28;;;5.32;53.30
42169;BME280;27838;43.858;25.974;2022-12-13T01:16:18;100665.75;;;5.25;54.10
42169;BME280;27838;43.858;25.974;2022-12-13T01:18:44;100656.22;;;5.21;53.83
42169;BME280;27838;43.858;25.974;2022-12-13T01:21:17;100658.78;;;5.21;53.51
42169;BME280;27838;43.858;25.974;2022-12-13T01:23:45;100658.91;;;5.27;53.11
42169;BME280;27838;43.858;25.974;2022-12-13T01:26:15;100662.16;;;5.18;53.15
42169;BME280;27838;43.858;25.974;2022-12-13T01:28:42;100659.47;;;5.12;53.41
42169;BME280;27838;43.858;25.974;2022-12-13T01:31:11;100655.25;;;5.16;54.14
42169;BME280;27838;43.858;25.974;2022-12-13T01:33:38;100655.28;;;5.19;53.70
42169;BME280;27838;43.858;25.974;2022-12-13T01:36:09;100650.09;;;5.19;53.77
42169;BME280;27838;43.858;25.974;2022-12-13T01:38:36;100652.69;;;5.17;53.93
42169;BME280;27838;43.858;25.974;2022-12-13T01:41:03;100661.13;;;5.08;53.87
42169;BME280;27838;43.858;25.974;2022-12-13T01:45:57;100660.81;;;4.96;53.98
42169;BME280;27838;43.858;25.974;2022-12-13T01:48:26;100669.47;;;4.97;53.98
42169;BME280;27838;43.858;25.974;2022-12-13T01:51:01;100670.13;;;4.88;53.54
42169;BME280;27838;43.858;25.974;2022-12-13T01:53:32;100668.38;;;4.87;53.15
42169;BME280;27838;43.858;25.974;2022-12-13T01:56:04;100665.75;;;4.85;53.52
42169;BME280;27838;43.858;25.974;2022-12-13T01:58:33;100656.16;;;4.80;53.96
42169;BME280;27838;43.858;25.974;2022-12-13T02:01:01;100665.44;;;4.71;53.52
42169;BME280;27838;43.858;25.974;2022-12-13T02:03:28;100671.47;;;4.70;53.57
42169;BME280;27838;43.858;25.974;2022-12-13T02:06:00;100666.38;;;4.75;52.99
42169;BME280;27838;43.858;25.974;2022-12-13T02:08:28;100669.88;;;4.76;53.68
42169;BME280;27838;43.858;25.974;2022-12-13T02:10:56;100667.97;;;4.68;52.86
42169;BME280;27838;43.858;25.974;2022-12-13T02:13:23;100683.53;;;4.71;52.50
42169;BME280;27838;43.858;25.974;2022-12-13T02:15:58;100670.56;;;4.70;53.09
42169;BME280;27838;43.858;25.974;2022-12-13T02:18:47;100678.44;;;4.75;52.63
42169;BME280;27838;43.858;25.974;2022-12-13T02:21:28;100670.72;;;4.76;52.17
42169;BME280;27838;43.858;25.974;2022-12-13T02:27:18;100662.31;;;4.85;52.38
42169;BME280;27838;43.858;25.974;2022-12-13T02:32:57;100653.34;;;4.69;52.89
42169;BME280;27838;43.858;25.974;2022-12-13T02:35:36;100655.81;;;4.64;52.96
42169;BME280;27838;43.858;25.974;2022-12-13T02:38:32;100664.00;;;4.46;52.92
42169;BME280;27838;43.858;25.974;2022-12-13T02:44:27;100669.31;;;4.16;54.29
42169;BME280;27838;43.858;25.974;2022-12-13T02:47:08;100676.88;;;4.10;53.80
42169;BME280;27838;43.858;25.974;2022-12-13T02:49:36;100684.66;;;4.11;53.72
42169;BME280;27838;43.858;25.974;2022-12-13T02:52:06;100685.53;;;4.12;53.71
42169;BME280;27838;43.858;25.974;2022-12-13T02:54:33;100692.53;;;4.16;53.54
42169;BME280;27838;43.858;25.974;2022-12-13T02:57:00;100697.75;;;4.19;53.20
42169;BME280;27838;43.858;25.974;2022-12-13T02:59:33;100700.53;;;4.27;53.02
42169;BME280;27838;43.858;25.974;2022-12-13T03:02:19;100703.97;;;4.27;53.29
42169;BME280;27838;43.858;25.974;2022-12-13T03:05:14;100704.16;;;4.35;53.19
42169;BME280;27838;43.858;25.974;2022-12-13T03:13:33;100708.91;;;4.18;52.81
42169;BME280;27838;43.858;25.974;2022-12-13T03:18:36;100708.06;;;4.19;52.52
42169;BME280;27838;43.858;25.974;2022-12-13T03:21:05;100703.13;;;4.27;52.54
42169;BME280;27838;43.858;25.974;2022-12-13T03:23:33;100716.91;;;4.29;52.51
42169;BME280;27838;43.858;25.974;2022-12-13T03:26:05;100716.88;;;4.27;52.49
42169;BME280;27838;43.858;25.974;2022-12-13T03:28:33;100714.16;;;4.23;52.60
42169;BME280;27838;43.858;25.974;2022-12-13T03:30:59;100715.03;;;4.22;52.83
42169;BME280;27838;43.858;25.974;2022-12-13T03:33:26;100707.38;;;4.25;52.42
42169;BME280;27838;43.858;25.974;2022-12-13T03:35:52;100718.31;;;4.16;52.09
42169;BME280;27838;43.858;25.974;2022-12-13T03:38:19;100723.72;;;4.25;52.35
42169;BME280;27838;43.858;25.974;2022-12-13T03:40:46;100734.63;;;4.15;52.50
42169;BME280;27838;43.858;25.974;2022-12-13T03:43:13;100732.59;;;4.03;52.53
42169;BME280;27838;43.858;25.974;2022-12-13T03:45:39;100733.38;;;4.01;53.07
42169;BME280;27838;43.858;25.974;2022-12-13T03:48:06;100738.47;;;3.97;53.10
42169;BME280;27838;43.858;25.974;2022-12-13T03:50:32;100736.84;;;4.01;52.73
42169;BME280;27838;43.858;25.974;2022-12-13T03:53:00;100747.97;;;4.00;52.96
42169;BME280;27838;43.858;25.974;2022-12-13T03:55:28;100741.91;;;3.98;52.77
42169;BME280;27838;43.858;25.974;2022-12-13T03:57:55;100744.34;;;3.92;53.08
42169;BME280;27838;43.858;25.974;2022-12-13T04:00:21;100738.47;;;3.97;52.30
42169;BME280;27838;43.858;25.974;2022-12-13T04:02:48;100735.78;;;3.94;52.14
42169;BME280;27838;43.858;25.974;2022-12-13T04:05:14;100735.06;;;3.99;52.80
42169;BME280;27838;43.858;25.974;2022-12-13T04:07:41;100738.75;;;4.08;52.51
42169;BME280;27838;43.858;25.974;2022-12-13T04:10:08;100736.25;;;4.11;52.29
42169;BME280;27838;43.858;25.974;2022-12-13T04:12:35;100736.25;;;4.11;52.39
42169;BME280;27838;43.858;25.974;2022-12-13T04:15:19;100740.66;;;4.15;52.46
42169;BME280;27838;43.858;25.974;2022-12-13T04:17:46;100735.53;;;4.17;52.19
42169;BME280;27838;43.858;25.974;2022-12-13T04:20:12;100738.97;;;4.16;52.23
42169;BME280;27838;43.858;25.974;2022-12-13T04:22:39;100742.09;;;4.04;52.42
42169;BME280;27838;43.858;25.974;2022-12-13T04:25:05;100731.44;;;3.92;53.00
42169;BME280;27838;43.858;25.974;2022-12-13T04:27:32;100736.38;;;3.84;53.40
42169;BME280;27838;43.858;25.974;2022-12-13T04:29:59;100751.69;;;3.78;53.14
42169;BME280;27838;43.858;25.974;2022-12-13T04:32:25;100753.16;;;3.70;53.38
42169;BME280;27838;43.858;25.974;2022-12-13T04:34:52;100752.06;;;3.62;52.81
42169;BME280;27838;43.858;25.974;2022-12-13T04:37:18;100759.13;;;3.67;53.01
42169;BME280;27838;43.858;25.974;2022-12-13T04:39:45;100763.66;;;3.76;52.84
42169;BME280;27838;43.858;25.974;2022-12-13T04:42:11;100763.72;;;3.79;52.91
42169;BME280;27838;43.858;25.974;2022-12-13T04:44:38;100760.22;;;3.77;52.88
42169;BME280;27838;43.858;25.974;2022-12-13T04:47:04;100764.53;;;3.76;52.60
42169;BME280;27838;43.858;25.974;2022-12-13T04:49:32;100768.97;;;3.82;52.92
42169;BME280;27838;43.858;25.974;2022-12-13T04:51:58;100762.34;;;3.90;52.84
42169;BME280;27838;43.858;25.974;2022-12-13T04:54:26;100750.19;;;3.86;53.00
42169;BME280;27838;43.858;25.974;2022-12-13T04:56:52;100761.66;;;3.97;52.75
42169;BME280;27838;43.858;25.974;2022-12-13T04:59:19;100759.91;;;3.96;53.02
42169;BME280;27838;43.858;25.974;2022-12-13T05:01:45;100767.75;;;4.00;52.87
42169;BME280;27838;43.858;25.974;2022-12-13T05:04:12;100770.28;;;3.98;52.88
42169;BME280;27838;43.858;25.974;2022-12-13T05:06:38;100772.75;;;3.93;52.61
42169;BME280;27838;43.858;25.974;2022-12-13T05:09:05;100777.97;;;3.96;52.71
42169;BME280;27838;43.858;25.974;2022-12-13T05:11:32;100778.00;;;3.98;52.61
42169;BME280;27838;43.858;25.974;2022-12-13T05:13:59;100783.44;;;4.07;52.47
42169;BME280;27838;43.858;25.974;2022-12-13T05:16:26;100786.19;;;4.13;52.21
42169;BME280;27838;43.858;25.974;2022-12-13T05:18:52;100794.03;;;4.18;52.15
42169;BME280;27838;43.858;25.974;2022-12-13T05:21:18;100793.03;;;4.13;51.99
42169;BME280;27838;43.858;25.974;2022-12-13T05:23:45;100792.91;;;4.08;52.33
42169;BME280;27838;43.858;25.974;2022-12-13T05:26:11;100796.41;;;4.10;52.44
42169;BME280;27838;43.858;25.974;2022-12-13T05:28:38;100807.44;;;4.05;52.58
42169;BME280;27838;43.858;25.974;2022-12-13T05:31:07;100816.16;;;4.10;52.45
42169;BME280;27838;43.858;25.974;2022-12-13T05:33:35;100833.41;;;4.11;51.87
42169;BME280;27838;43.858;25.974;2022-12-13T05:36:02;100835.31;;;4.18;52.23
42169;BME280;27838;43.858;25.974;2022-12-13T05:38:29;100843.84;;;4.15;51.87
42169;BME280;27838;43.858;25.974;2022-12-13T05:40:57;100848.53;;;3.99;52.58
42169;BME280;27838;43.858;25.974;2022-12-13T05:43:23;100848.34;;;3.92;52.55
42169;BME280;27838;43.858;25.974;2022-12-13T05:45:50;100841.31;;;3.87;52.60
42169;BME280;27838;43.858;25.974;2022-12-13T05:48:16;100850.94;;;3.92;52.31
42169;BME280;27838;43.858;25.974;2022-12-13T05:50:43;100845.56;;;3.85;52.82
42169;BME280;27838;43.858;25.974;2022-12-13T05:53:10;100857.25;;;3.73;52.65
42169;BME280;27838;43.858;25.974;2022-12-13T05:55:37;100859.00;;;3.74;52.76
42169;BME280;27838;43.858;25.974;2022-12-13T05:58:04;100865.94;;;3.77;52.85
42169;BME280;27838;43.858;25.974;2022-12-13T06:00:30;100876.09;;;3.71;52.85
42169;BME280;27838;43.858;25.974;2022-12-13T06:02:58;100861.34;;;3.67;53.03
42169;BME280;27838;43.858;25.974;2022-12-13T06:05:25;100871.84;;;3.73;52.78
42169;BME280;27838;43.858;25.974;2022-12-13T06:07:53;100874.44;;;3.73;52.47
42169;BME280;27838;43.858;25.974;2022-12-13T06:10:19;100886.56;;;3.77;52.60
42169;BME280;27838;43.858;25.974;2022-12-13T06:12:47;100890.84;;;3.76;52.22
42169;BME280;27838;43.858;25.974;2022-12-13T06:15:13;100894.47;;;3.82;52.21
42169;BME280;27838;43.858;25.974;2022-12-13T06:17:40;100895.56;;;3.90;52.09
42169;BME280;27838;43.858;25.974;2022-12-13T06:20:07;100900.84;;;3.94;51.76
42169;BME280;27838;43.858;25.974;2022-12-13T06:22:33;100906.09;;;3.97;51.48
42169;BME280;27838;43.858;25.974;2022-12-13T06:25:00;100917.22;;;3.96;51.60
42169;BME280;27838;43.858;25.974;2022-12-13T06:27:27;100909.38;;;3.92;51.94
42169;BME280;27838;43.858;25.974;2022-12-13T06:29:53;100898.00;;;3.85;51.94
42169;BME280;27838;43.858;25.974;2022-12-13T06:32:20;100911.00;;;3.88;51.73
42169;BME280;27838;43.858;25.974;2022-12-13T06:34:46;100910.25;;;3.92;52.09
42169;BME280;27838;43.858;25.974;2022-12-13T06:37:13;100924.09;;;3.96;52.13
42169;BME280;27838;43.858;25.974;2022-12-13T06:39:39;100914.81;;;4.01;52.21
42169;BME280;27838;43.858;25.974;2022-12-13T06:42:09;100918.25;;;4.02;52.71
42169;BME280;27838;43.858;25.974;2022-12-13T06:44:40;100911.16;;;3.94;52.40
42169;BME280;27838;43.858;25.974;2022-12-13T06:47:07;100910.16;;;3.89;53.00
42169;BME280;27838;43.858;25.974;2022-12-13T06:49:33;100915.34;;;3.91;52.48
42169;BME280;27838;43.858;25.974;2022-12-13T06:52:00;100916.19;;;3.90;52.27
42169;BME280;27838;43.858;25.974;2022-12-13T06:54:26;100923.97;;;3.91;52.73
42169;BME280;27838;43.858;25.974;2022-12-13T06:56:53;100920.28;;;3.83;52.83
42169;BME280;27838;43.858;25.974;2022-12-13T06:59:20;100926.97;;;3.76;52.91
42169;BME280;27838;43.858;25.974;2022-12-13T07:01:46;100928.03;;;3.83;53.29
42169;BME280;27838;43.858;25.974;2022-12-13T07:04:13;100939.03;;;3.77;53.60
42169;BME280;27838;43.858;25.974;2022-12-13T07:06:39;100940.72;;;3.77;53.14
42169;BME280;27838;43.858;25.974;2022-12-13T07:09:06;100946.25;;;3.89;53.13
42169;BME280;27838;43.858;25.974;2022-12-13T07:11:32;100948.81;;;3.89;52.81
42169;BME280;27838;43.858;25.974;2022-12-13T07:14:00;100948.88;;;3.91;52.95
42169;BME280;27838;43.858;25.974;2022-12-13T07:16:26;100953.13;;;3.89;52.83
42169;BME280;27838;43.858;25.974;2022-12-13T07:18:55;100961.81;;;3.92;52.45
42169;BME280;27838;43.858;25.974;2022-12-13T07:21:21;100961.06;;;3.96;52.97
42169;BME280;27838;43.858;25.974;2022-12-13T07:23:48;100963.66;;;3.96;53.16
42169;BME280;27838;43.858;25.974;2022-12-13T07:26:15;100964.56;;;3.97;52.82
42169;BME280;27838;43.858;25.974;2022-12-13T07:28:42;100969.47;;;3.89;53.10
42169;BME280;27838;43.858;25.974;2022-12-13T07:31:09;100958.97;;;3.83;53.24
42169;BME280;27838;43.858;25.974;2022-12-13T07:33:36;100972.03;;;3.89;53.21
42169;BME280;27838;43.858;25.974;2022-12-13T07:38:32;100967.34;;;4.05;53.10
42169;BME280;27838;43.858;25.974;2022-12-13T07:40:59;100978.59;;;4.07;52.73
42169;BME280;27838;43.858;25.974;2022-12-13T07:43:25;100974.19;;;4.03;53.21
42169;BME280;27838;43.858;25.974;2022-12-13T07:45:53;100985.41;;;4.05;53.36
42169;BME280;27838;43.858;25.974;2022-12-13T07:48:22;100998.16;;;4.00;53.42
42169;BME280;27838;43.858;25.974;2022-12-13T07:50:49;101003.56;;;3.81;53.88
42169;BME280;27838;43.858;25.974;2022-12-13T07:53:15;101011.47;;;3.85;54.22
42169;BME280;27838;43.858;25.974;2022-12-13T07:55:42;101007.38;;;3.92;54.30
42169;BME280;27838;43.858;25.974;2022-12-13T07:58:11;101012.47;;;3.90;53.79
42169;BME280;27838;43.858;25.974;2022-12-13T08:00:39;101010.94;;;3.95;54.69
42169;BME280;27838;43.858;25.974;2022-12-13T08:03:06;101015.56;;;4.06;54.38
42169;BME280;27838;43.858;25.974;2022-12-13T08:05:33;101020.84;;;4.10;54.33
42169;BME280;27838;43.858;25.974;2022-12-13T08:08:00;101026.31;;;4.20;53.65
42169;BME280;27838;43.858;25.974;2022-12-13T08:10:27;101030.81;;;4.27;53.84
42169;BME280;27838;43.858;25.974;2022-12-13T08:12:53;101031.00;;;4.33;53.77
42169;BME280;27838;43.858;25.974;2022-12-13T08:15:20;101028.66;;;4.41;53.76
42169;BME280;27838;43.858;25.974;2022-12-13T08:17:47;101038.72;;;4.33;52.92
42169;BME280;27838;43.858;25.974;2022-12-13T08:20:14;101049.09;;;4.34;53.46
42169;BME280;27838;43.858;25.974;2022-12-13T08:22:41;101034.59;;;4.38;52.34
42169;BME280;27838;43.858;25.974;2022-12-13T08:25:08;101034.47;;;4.33;52.94
42169;BME280;27838;43.858;25.974;2022-12-13T08:27:35;101052.16;;;4.21;53.29
42169;BME280;27838;43.858;25.974;2022-12-13T08:30:01;101052.75;;;4.14;52.73
42169;BME280;27838;43.858;25.974;2022-12-13T08:32:28;101060.81;;;4.23;52.68
42169;BME280;27838;43.858;25.974;2022-12-13T08:34:54;101050.44;;;4.22;52.83
42169;BME280;27838;43.858;25.974;2022-12-13T08:37:21;101059.09;;;4.24;53.08
42169;BME280;27838;43.858;25.974;2022-12-13T08:39:47;101052.28;;;4.26;53.16
42169;BME280;27838;43.858;25.974;2022-12-13T08:42:16;101044.16;;;4.41;53.42
42169;BME280;27838;43.858;25.974;2022-12-13T08:44:44;101037.56;;;4.52;52.76
42169;BME280;27838;43.858;25.974;2022-12-13T08:47:11;101035.09;;;4.55;52.20
42169;BME280;27838;43.858;25.974;2022-12-13T08:49:37;101024.22;;;4.65;51.90
42169;BME280;27838;43.858;25.974;2022-12-13T08:52:05;101027.72;;;4.67;52.22
42169;BME280;27838;43.858;25.974;2022-12-13T08:54:32;101025.44;;;4.78;52.78
42169;BME280;27838;43.858;25.974;2022-12-13T08:56:59;101021.06;;;4.76;52.16
42169;BME280;27838;43.858;25.974;2022-12-13T08:59:25;101030.44;;;4.72;52.46
42169;BME280;27838;43.858;25.974;2022-12-13T09:01:52;101027.25;;;4.81;52.11
42169;BME280;27838;43.858;25.974;2022-12-13T09:04:18;101026.56;;;4.88;52.43
42169;BME280;27838;43.858;25.974;2022-12-13T09:06:45;101021.66;;;4.97;52.59
42169;BME280;27838;43.858;25.974;2022-12-13T09:09:11;101027.00;;;5.03;52.40
42169;BME280;27838;43.858;25.974;2022-12-13T09:11:39;101019.72;;;5.22;51.56
42169;BME280;27838;43.858;25.974;2022-12-13T09:14:06;101003.81;;;5.40;51.56
42169;BME280;27838;43.858;25.974;2022-12-13T09:16:33;100996.16;;;5.43;51.44
42169;BME280;27838;43.858;25.974;2022-12-13T09:19:02;100996.16;;;5.43;51.39
42169;BME280;27838;43.858;25.974;2022-12-13T09:21:29;100995.63;;;5.56;51.44
42169;BME280;27838;43.858;25.974;2022-12-13T09:23:55;100982.09;;;5.66;52.46
42169;BME280;27838;43.858;25.974;2022-12-13T09:26:22;100977.38;;;5.86;51.61
42169;BME280;27838;43.858;25.974;2022-12-13T09:28:49;100976.63;;;5.91;49.68
42169;BME280;27838;43.858;25.974;2022-12-13T09:31:17;100980.81;;;5.85;50.66
42169;BME280;27838;43.858;25.974;2022-12-13T09:33:45;100978.28;;;5.89;50.95
42169;BME280;27838;43.858;25.974;2022-12-13T09:36:17;100984.75;;;6.06;50.90
42169;BME280;27838;43.858;25.974;2022-12-13T09:38:45;100981.72;;;6.24;50.28
42169;BME280;27838;43.858;25.974;2022-12-13T09:41:22;100972.44;;;6.35;50.06
42169;BME280;27838;43.858;25.974;2022-12-13T09:44:02;100975.22;;;6.43;49.08
42169;BME280;27838;43.858;25.974;2022-12-13T09:46:33;100972.75;;;6.49;49.13
42169;BME280;27838;43.858;25.974;2022-12-13T09:49:03;100974.69;;;6.59;49.33
42169;BME280;27838;43.858;25.974;2022-12-13T09:51:31;100968.66;;;6.62;48.02
42169;BME280;27838;43.858;25.974;2022-12-13T09:53:59;100956.66;;;6.66;49.12
42169;BME280;27838;43.858;25.974;2022-12-13T09:56:26;100966.47;;;6.80;49.41
42169;BME280;27838;43.858;25.974;2022-12-13T09:58:54;100970.03;;;6.87;48.02
42169;BME280;27838;43.858;25.974;2022-12-13T10:01:22;100963.16;;;6.89;48.16
42169;BME280;27838;43.858;25.974;2022-12-13T10:03:51;100958.13;;;6.97;48.64
42169;BME280;27838;43.858;25.974;2022-12-13T10:06:20;100972.22;;;7.13;48.41
42169;BME280;27838;43.858;25.974;2022-12-13T10:08:55;100968.22;;;7.30;48.07
42169;BME280;27838;43.858;25.974;2022-12-13T10:11:22;100963.41;;;7.52;48.20
42169;BME280;27838;43.858;25.974;2022-12-13T10:14:16;100971.16;;;7.50;46.93
42169;BME280;27838;43.858;25.974;2022-12-13T10:16:49;100974.34;;;7.34;46.88
42169;BME280;27838;43.858;25.974;2022-12-13T10:19:32;100969.81;;;7.22;46.85
42169;BME280;27838;43.858;25.974;2022-12-13T10:22:01;100970.63;;;7.19;46.44
42169;BME280;27838;43.858;25.974;2022-12-13T10:24:52;100974.00;;;7.15;47.01
42169;BME280;27838;43.858;25.974;2022-12-13T10:30:08;100969.03;;;7.28;46.90
42169;BME280;27838;43.858;25.974;2022-12-13T10:32:44;100970.09;;;7.39;47.75
42169;BME280;27838;43.858;25.974;2022-12-13T10:35:27;100957.28;;;7.48;46.31
42169;BME280;27838;43.858;25.974;2022-12-13T10:37:56;100964.25;;;7.51;45.83
42169;BME280;27838;43.858;25.974;2022-12-13T10:40:39;100961.81;;;7.62;46.88
42169;BME280;27838;43.858;25.974;2022-12-13T10:43:13;100962.00;;;7.72;46.13
42169;BME280;27838;43.858;25.974;2022-12-13T10:48:46;100940.50;;;7.80;46.27
42169;BME280;27838;43.858;25.974;2022-12-13T10:51:15;100944.94;;;7.88;46.39
42169;BME280;27838;43.858;25.974;2022-12-13T10:56:12;100932.88;;;7.92;44.86
42169;BME280;27838;43.858;25.974;2022-12-13T10:58:42;100933.69;;;7.89;45.37
42169;BME280;27838;43.858;25.974;2022-12-13T11:01:23;100933.75;;;7.92;45.37
42169;BME280;27838;43.858;25.974;2022-12-13T11:04:03;100933.03;;;8.04;44.79
42169;BME280;27838;43.858;25.974;2022-12-13T11:06:44;100929.56;;;8.02;44.99
42169;BME280;27838;43.858;25.974;2022-12-13T11:09:27;100932.22;;;8.08;45.41
42169;BME280;27838;43.858;25.974;2022-12-13T11:11:56;100932.31;;;8.13;44.48
42169;BME280;27838;43.858;25.974;2022-12-13T11:14:27;100933.97;;;8.09;43.95
42169;BME280;27838;43.858;25.974;2022-12-13T11:16:57;100924.25;;;7.94;44.57
42169;BME280;27838;43.858;25.974;2022-12-13T11:19:32;100920.69;;;7.88;45.74
42169;BME280;27838;43.858;25.974;2022-12-13T11:22:00;100919.09;;;7.96;45.44
42169;BME280;27838;43.858;25.974;2022-12-13T11:24:33;100925.94;;;7.91;44.04
42169;BME280;27838;43.858;25.974;2022-12-13T11:30:09;100927.63;;;7.89;45.18
42169;BME280;27838;43.858;25.974;2022-12-13T11:38:57;100931.59;;;8.25;44.15
42169;BME280;27838;43.858;25.974;2022-12-13T11:41:41;100937.56;;;8.19;43.83
42169;BME280;27838;43.858;25.974;2022-12-13T11:44:21;100933.13;;;8.12;43.94
42169;BME280;27838;43.858;25.974;2022-12-13T11:46:53;100926.03;;;7.97;43.64
42169;BME280;27838;43.858;25.974;2022-12-13T11:52:51;100927.75;;;7.98;44.06
42169;BME280;27838;43.858;25.974;2022-12-13T11:54:58;100925.03;;;7.89;44.87
42169;BME280;27838;43.858;25.974;2022-12-13T11:57:32;100925.94;;;7.91;44.19
42169;BME280;27838;43.858;25.974;2022-12-13T12:00:51;100931.97;;;7.88;44.63
42169;BME280;27838;43.858;25.974;2022-12-13T12:02:54;100940.34;;;7.72;44.98
42169;BME280;27838;43.858;25.974;2022-12-13T12:05:31;100943.72;;;7.66;45.23
42169;BME280;27838;43.858;25.974;2022-12-13T12:08:05;100941.88;;;7.57;45.32
42169;BME280;27838;43.858;25.974;2022-12-13T12:10:42;100942.78;;;7.61;44.59
42169;BME280;27838;43.858;25.974;2022-12-13T12:13:29;100933.47;;;7.72;44.11
42169;BME280;27838;43.858;25.974;2022-12-13T12:16:37;100939.59;;;7.78;44.46
42169;BME280;27838;43.858;25.974;2022-12-13T12:19:00;100928.25;;;7.71;44.42
42169;BME280;27838;43.858;25.974;2022-12-13T12:24:19;100925.53;;;7.65;44.42
42169;BME280;27838;43.858;25.974;2022-12-13T12:35:32;100917.38;;;7.40;44.21
42169;BME280;27838;43.858;25.974;2022-12-13T12:40:54;100934.16;;;7.62;45.10
42169;BME280;27838;43.858;25.974;2022-12-13T12:46:24;100945.69;;;7.80;44.54
42169;BME280;27838;43.858;25.974;2022-12-13T12:57:04;100953.16;;;7.61;44.08
42169;BME280;27838;43.858;25.974;2022-12-13T13:02:28;100960.94;;;7.61;43.71
42169;BME280;27838;43.858;25.974;2022-12-13T13:08:16;100958.97;;;7.45;43.57
42169;BME280;27838;43.858;25.974;2022-12-13T13:10:45;100953.84;;;7.49;44.28
42169;BME280;27838;43.858;25.974;2022-12-13T13:13:47;100950.41;;;7.50;44.03
42169;BME280;27838;43.858;25.974;2022-12-13T13:18:54;100956.19;;;7.34;44.34
42169;BME280;27838;43.858;25.974;2022-12-13T13:26:27;100950.19;;;7.36;44.77
42169;BME280;27838;43.858;25.974;2022-12-13T13:28:54;100943.22;;;7.32;44.54
42169;BME280;27838;43.858;25.974;2022-12-13T13:34:38;100957.16;;;7.41;44.27
42169;BME280;27838;43.858;25.974;2022-12-13T13:39:58;100955.50;;;7.46;45.16
42169;BME280;27838;43.858;25.974;2022-12-13T13:42:27;100961.50;;;7.42;44.99
42169;BME280;27838;43.858;25.974;2022-12-13T13:45:18;100963.19;;;7.38;45.07
42169;BME280;27838;43.858;25.974;2022-12-13T13:47:57;100964.84;;;7.34;45.06
42169;BME280;27838;43.858;25.974;2022-12-13T14:05:10;100985.78;;;6.98;46.08
42169;BME280;27838;43.858;25.974;2022-12-13T14:19:44;100996.72;;;6.83;47.39
42169;BME280;27838;43.858;25.974;2022-12-13T14:22:39;101003.81;;;6.92;47.21
42169;BME280;27838;43.858;25.974;2022-12-13T14:28:11;101012.56;;;6.98;47.56
42169;BME280;27838;43.858;25.974;2022-12-13T14:30:42;101016.13;;;7.04;47.13
42169;BME280;27838;43.858;25.974;2022-12-13T14:33:21;101020.34;;;6.98;47.20
42169;BME280;27838;43.858;25.974;2022-12-13T14:35:53;101029.06;;;7.02;47.68
42169;BME280;27838;43.858;25.974;2022-12-13T14:38:23;101029.22;;;7.10;47.07
42169;BME280;27838;43.858;25.974;2022-12-13T14:40:56;101035.31;;;7.12;47.65
42169;BME280;27838;43.858;25.974;2022-12-13T14:43:28;101029.16;;;7.07;47.06
42169;BME280;27838;43.858;25.974;2022-12-13T14:45:57;101033.38;;;7.02;47.65
42169;BME280;27838;43.858;25.974;2022-12-13T14:48:25;101041.13;;;7.00;47.60
42169;BME280;27838;43.858;25.974;2022-12-13T14:50:52;101059.22;;;6.98;47.10
42169;BME280;27838;43.858;25.974;2022-12-13T14:53:33;101063.50;;;6.96;48.14
42169;BME280;27838;43.858;25.974;2022-12-13T14:58:32;101066.06;;;6.95;47.69
42169;BME280;27838;43.858;25.974;2022-12-13T15:01:05;101062.56;;;6.93;47.23
42169;BME280;27838;43.858;25.974;2022-12-13T15:03:32;101066.00;;;6.90;48.23
42169;BME280;27838;43.858;25.974;2022-12-13T15:06:00;101065.19;;;6.94;47.54